createdAt,value
2022-09-01T00:01:48.902Z,17.50
2022-09-01T00:04:20.183Z,17.50
2022-09-01T00:06:47.870Z,17.50
2022-09-01T00:09:19.452Z,17.40
2022-09-01T00:11:50.408Z,17.40
2022-09-01T00:14:30.405Z,17.40
2022-09-01T00:17:04.013Z,17.30
2022-09-01T00:19:33.210Z,17.20
2022-09-01T00:22:00.632Z,17.20
2022-09-01T00:24:28.351Z,17.20
2022-09-01T00:26:56.635Z,17.20
2022-09-01T00:29:24.252Z,17.20
2022-09-01T00:31:51.602Z,17.20
2022-09-01T00:34:18.943Z,17.20
2022-09-01T00:36:45.690Z,17.20
2022-09-01T00:39:14.604Z,17.20
2022-09-01T00:41:44.151Z,17.10
2022-09-01T00:44:15.248Z,17.00
2022-09-01T00:46:49.779Z,16.90
2022-09-01T00:49:41.438Z,16.80
2022-09-01T00:52:30.831Z,16.90
2022-09-01T00:55:01.545Z,16.90
2022-09-01T00:57:28.619Z,16.90
2022-09-01T01:00:01.838Z,16.90
2022-09-01T01:02:28.868Z,16.80
2022-09-01T01:04:59.407Z,16.90
2022-09-01T01:07:27.284Z,16.80
2022-09-01T01:09:54.156Z,16.70
2022-09-01T01:12:21.131Z,16.60
2022-09-01T01:14:50.698Z,16.60
2022-09-01T01:17:19.834Z,16.60
2022-09-01T01:20:13.981Z,16.60
2022-09-01T01:23:25.527Z,16.60
2022-09-01T01:25:58.916Z,16.60
2022-09-01T01:28:31.841Z,16.60
2022-09-01T01:31:03.055Z,16.60
2022-09-01T01:33:42.896Z,16.60
2022-09-01T01:36:13.241Z,16.50
2022-09-01T01:38:43.170Z,16.50
2022-09-01T01:41:11.466Z,16.50
2022-09-01T01:43:38.908Z,16.50
2022-09-01T01:46:08.645Z,16.60
2022-09-01T01:48:39.690Z,16.60
2022-09-01T01:51:07.593Z,16.60
2022-09-01T01:53:34.918Z,16.50
2022-09-01T01:56:02.308Z,16.50
2022-09-01T01:58:29.074Z,16.50
2022-09-01T02:00:56.851Z,16.50
2022-09-01T02:03:28.857Z,16.60
2022-09-01T02:05:56.354Z,16.60
2022-09-01T02:08:26.024Z,16.50
2022-09-01T02:10:55.164Z,16.50
2022-09-01T02:13:31.399Z,16.50
2022-09-01T02:16:07.555Z,16.40
2022-09-01T02:18:36.873Z,16.40
2022-09-01T02:21:15.158Z,16.30
2022-09-01T02:23:43.195Z,16.20
2022-09-01T02:26:17.418Z,16.20
2022-09-01T02:28:54.411Z,16.30
2022-09-01T02:31:22.999Z,16.10
2022-09-01T02:33:49.695Z,16.10
2022-09-01T02:36:19.308Z,16.20
2022-09-01T02:38:53.699Z,16.20
2022-09-01T02:41:23.698Z,16.10
2022-09-01T02:43:50.983Z,16.10
2022-09-01T02:46:19.879Z,16.00
2022-09-01T02:48:51.387Z,15.90
2022-09-01T02:51:25.421Z,15.80
2022-09-01T02:53:52.668Z,15.90
2022-09-01T02:56:25.061Z,15.90
2022-09-01T02:58:53.052Z,15.90
2022-09-01T03:01:29.291Z,15.80
2022-09-01T03:04:00.361Z,15.80
2022-09-01T03:06:28.159Z,15.80
2022-09-01T03:09:00.137Z,15.80
2022-09-01T03:11:29.897Z,15.80
2022-09-01T03:13:57.523Z,15.70
2022-09-01T03:16:24.342Z,15.80
2022-09-01T03:18:51.975Z,15.60
2022-09-01T03:21:19.916Z,15.50
2022-09-01T03:23:47.553Z,15.50
2022-09-01T03:26:18.550Z,15.50
2022-09-01T03:28:46.105Z,15.50
2022-09-01T03:31:13.030Z,15.50
2022-09-01T03:33:39.777Z,15.50
2022-09-01T03:36:08.401Z,15.40
2022-09-01T03:38:43.782Z,15.40
2022-09-01T03:41:13.270Z,15.40
2022-09-01T03:43:47.026Z,15.30
2022-09-01T03:46:21.609Z,15.20
2022-09-01T03:48:51.710Z,15.10
2022-09-01T03:51:20.958Z,15.00
2022-09-01T03:53:47.666Z,15.00
2022-09-01T03:56:15.162Z,15.00
2022-09-01T03:58:47.144Z,15.00
2022-09-01T04:01:16.062Z,14.90
2022-09-01T04:03:45.564Z,14.90
2022-09-01T04:06:12.695Z,14.90
2022-09-01T04:08:40.579Z,14.90
2022-09-01T04:11:18.516Z,14.90
2022-09-01T04:13:47.274Z,15.00
2022-09-01T04:16:52.958Z,14.90
2022-09-01T04:19:26.528Z,14.80
2022-09-01T04:22:01.935Z,14.80
2022-09-01T04:24:31.995Z,14.70
2022-09-01T04:27:04.518Z,14.70
2022-09-01T04:29:32.774Z,14.60
2022-09-01T04:32:03.578Z,14.60
2022-09-01T04:34:37.459Z,14.70
2022-09-01T04:37:13.167Z,14.70
2022-09-01T04:39:51.432Z,14.70
2022-09-01T04:42:23.916Z,14.80
2022-09-01T04:44:53.521Z,14.90
2022-09-01T04:47:29.926Z,14.90
2022-09-01T04:50:03.538Z,14.90
2022-09-01T04:52:31.944Z,14.90
2022-09-01T04:54:58.655Z,14.90
2022-09-01T04:57:27.577Z,14.90
2022-09-01T04:59:56.845Z,14.90
2022-09-01T05:02:27.166Z,14.90
2022-09-01T05:04:54.212Z,14.90
2022-09-01T05:07:21.480Z,14.90
2022-09-01T05:09:48.142Z,15.00
2022-09-01T05:12:16.834Z,14.90
2022-09-01T05:14:48.637Z,14.80
2022-09-01T05:17:17.151Z,14.70
2022-09-01T05:19:47.620Z,14.70
2022-09-01T05:22:15.760Z,14.80
2022-09-01T05:24:42.765Z,14.80
2022-09-01T05:27:10.679Z,14.80
2022-09-01T05:29:38.508Z,14.70
2022-09-01T05:32:09.969Z,14.80
2022-09-01T05:34:38.808Z,14.90
2022-09-01T05:37:08.451Z,14.90
2022-09-01T05:39:38.022Z,14.90
2022-09-01T05:42:07.972Z,15.00
2022-09-01T05:44:36.162Z,15.00
2022-09-01T05:47:03.527Z,15.10
2022-09-01T05:49:33.098Z,15.00
2022-09-01T05:52:00.429Z,15.00
2022-09-01T05:54:27.945Z,15.10
2022-09-01T05:56:57.316Z,15.20
2022-09-01T05:59:25.220Z,15.30
2022-09-01T06:01:53.861Z,15.60
2022-09-01T06:04:22.263Z,15.70
2022-09-01T06:07:06.108Z,15.60
2022-09-01T06:09:38.789Z,15.90
2022-09-01T06:12:06.642Z,16.00
2022-09-01T06:14:33.613Z,16.10
2022-09-01T06:17:00.847Z,16.30
2022-09-01T06:19:27.547Z,16.80
2022-09-01T06:21:55.426Z,17.30
2022-09-01T06:24:22.100Z,17.70
2022-09-01T06:26:48.932Z,17.50
2022-09-01T06:29:15.777Z,17.50
2022-09-01T06:31:43.311Z,17.50
2022-09-01T06:34:17.037Z,17.30
2022-09-01T06:36:45.768Z,17.10
2022-09-01T06:39:19.787Z,17.00
2022-09-01T06:41:50.712Z,16.90
2022-09-01T06:44:23.087Z,17.00
2022-09-01T06:46:53.575Z,17.00
2022-09-01T06:49:21.637Z,17.00
2022-09-01T06:51:51.668Z,17.10
2022-09-01T06:54:21.137Z,17.20
2022-09-01T06:56:51.290Z,17.40
2022-09-01T06:59:20.277Z,17.40
2022-09-01T07:01:49.003Z,17.50
2022-09-01T07:04:21.405Z,17.50
2022-09-01T07:07:00.089Z,17.60
2022-09-01T07:12:27.549Z,17.70
2022-09-01T07:17:43.155Z,18.00
2022-09-01T07:20:27.198Z,18.00
2022-09-01T07:23:04.449Z,18.20
2022-09-01T07:26:00.542Z,18.50
2022-09-01T07:28:36.011Z,18.40
2022-09-01T07:33:55.735Z,18.90
2022-09-01T07:42:31.940Z,17.70
2022-09-01T07:45:28.283Z,19.30
2022-09-01T07:47:56.061Z,19.40
2022-09-01T07:51:34.301Z,19.40
2022-09-01T07:53:12.497Z,19.50
2022-09-01T07:55:43.973Z,19.70
2022-09-01T07:58:11.794Z,19.90
2022-09-01T08:00:40.197Z,20.10
2022-09-01T08:03:07.072Z,19.90
2022-09-01T08:05:34.034Z,20.10
2022-09-01T08:08:01.218Z,20.30
2022-09-01T08:10:28.171Z,20.40
2022-09-01T08:12:56.525Z,20.70
2022-09-01T08:15:41.318Z,20.90
2022-09-01T08:18:14.312Z,20.90
2022-09-01T08:20:45.585Z,21.10
2022-09-01T08:23:18.469Z,21.30
2022-09-01T08:25:48.444Z,21.50
2022-09-01T08:28:15.591Z,21.30
2022-09-01T08:30:51.984Z,21.30
2022-09-01T08:33:19.621Z,21.60
2022-09-01T08:35:49.257Z,21.80
2022-09-01T08:38:16.219Z,21.90
2022-09-01T08:40:49.511Z,21.80
2022-09-01T08:43:27.006Z,21.70
2022-09-01T08:46:03.931Z,21.90
2022-09-01T08:51:45.414Z,22.00
2022-09-01T08:54:29.343Z,22.30
2022-09-01T08:57:01.885Z,22.50
2022-09-01T08:59:28.855Z,22.50
2022-09-01T09:02:16.458Z,22.60
2022-09-01T09:04:49.246Z,22.50
2022-09-01T09:07:33.909Z,22.60
2022-09-01T09:10:19.345Z,22.70
2022-09-01T09:13:13.252Z,22.90
2022-09-01T09:15:46.869Z,23.00
2022-09-01T09:18:39.342Z,23.10
2022-09-01T09:21:16.808Z,23.00
2022-09-01T09:23:47.931Z,22.90
2022-09-01T09:26:16.566Z,23.00
2022-09-01T09:28:43.574Z,23.20
2022-09-01T09:31:35.744Z,23.20
2022-09-01T09:34:04.135Z,23.40
2022-09-01T09:36:36.944Z,23.70
2022-09-01T09:39:16.660Z,23.80
2022-09-01T09:42:00.336Z,23.70
2022-09-01T09:44:30.424Z,23.90
2022-09-01T09:47:01.210Z,23.70
2022-09-01T09:49:36.023Z,24.00
2022-09-01T09:52:03.404Z,24.10
2022-09-01T09:54:31.362Z,24.30
2022-09-01T09:57:13.632Z,24.60
2022-09-01T10:00:03.556Z,24.90
2022-09-01T10:02:34.607Z,24.90
2022-09-01T10:05:21.414Z,24.60
2022-09-01T10:07:49.614Z,24.70
2022-09-01T10:10:38.824Z,24.60
2022-09-01T10:13:10.755Z,24.70
2022-09-01T10:15:38.773Z,24.60
2022-09-01T10:18:19.970Z,24.70
2022-09-01T10:20:56.345Z,25.00
2022-09-01T10:23:27.198Z,25.10
2022-09-01T10:26:06.004Z,25.30
2022-09-01T10:28:37.070Z,25.20
2022-09-01T10:31:04.236Z,25.20
2022-09-01T10:33:31.043Z,24.90
2022-09-01T10:35:58.232Z,24.80
2022-09-01T10:38:29.405Z,24.90
2022-09-01T10:41:14.980Z,24.90
2022-09-01T10:43:51.324Z,24.90
2022-09-01T10:46:39.037Z,25.00
2022-09-01T10:49:46.816Z,25.00
2022-09-01T10:52:43.364Z,25.10
2022-09-01T10:55:24.758Z,25.20
2022-09-01T10:58:08.500Z,25.20
2022-09-01T11:03:53.852Z,25.50
2022-09-01T11:07:11.643Z,25.60
2022-09-01T11:09:40.723Z,25.60
2022-09-01T11:12:29.822Z,25.50
2022-09-01T11:15:03.321Z,25.40
2022-09-01T11:17:57.878Z,25.60
2022-09-01T11:20:26.746Z,25.50
2022-09-01T11:23:07.800Z,25.40
2022-09-01T11:26:18.958Z,25.50
2022-09-01T11:28:42.046Z,25.40
2022-09-01T11:31:08.811Z,25.50
2022-09-01T11:33:53.136Z,25.60
2022-09-01T11:36:35.910Z,25.70
2022-09-01T11:39:17.657Z,25.60
2022-09-01T11:41:57.420Z,25.40
2022-09-01T11:45:03.016Z,25.60
2022-09-01T11:47:44.066Z,25.70
2022-09-01T11:50:25.842Z,25.50
2022-09-01T11:52:56.083Z,25.70
2022-09-01T11:55:34.986Z,25.80
2022-09-01T11:58:02.022Z,25.90
2022-09-01T12:00:38.272Z,25.80
2022-09-01T12:03:25.396Z,25.80
2022-09-01T12:06:00.360Z,25.60
2022-09-01T12:08:31.469Z,25.90
2022-09-01T12:11:27.476Z,25.80
2022-09-01T12:13:59.250Z,25.80
2022-09-01T12:16:26.784Z,25.90
2022-09-01T12:18:56.675Z,26.00
2022-09-01T12:21:30.566Z,26.10
2022-09-01T12:24:19.581Z,26.10
2022-09-01T12:26:48.178Z,26.20
2022-09-01T12:29:16.424Z,26.30
2022-09-01T12:31:45.832Z,26.20
2022-09-01T12:34:33.274Z,26.00
2022-09-01T12:37:22.880Z,26.00
2022-09-01T12:39:52.594Z,26.20
2022-09-01T12:42:19.252Z,26.20
2022-09-01T12:44:50.979Z,26.10
2022-09-01T12:47:36.698Z,26.10
2022-09-01T12:50:07.929Z,26.10
2022-09-01T12:52:44.780Z,25.90
2022-09-01T12:58:12.836Z,26.20
2022-09-01T13:00:59.386Z,26.60
2022-09-01T13:03:29.518Z,26.40
2022-09-01T13:06:01.257Z,26.30
2022-09-01T13:08:33.513Z,26.20
2022-09-01T13:11:11.345Z,26.20
2022-09-01T13:13:38.581Z,26.10
2022-09-01T13:16:13.618Z,25.80
2022-09-01T13:21:30.546Z,26.10
2022-09-01T13:23:57.993Z,26.40
2022-09-01T13:26:25.935Z,26.20
2022-09-01T13:28:53.776Z,26.20
2022-09-01T13:31:36.046Z,26.30
2022-09-01T13:34:22.602Z,26.30
2022-09-01T13:36:52.326Z,26.30
2022-09-01T13:39:20.404Z,26.40
2022-09-01T13:41:47.973Z,26.50
2022-09-01T13:44:16.969Z,26.50
2022-09-01T13:47:00.979Z,26.70
2022-09-01T13:52:19.177Z,26.90
2022-09-01T13:54:47.649Z,27.10
2022-09-01T13:57:16.217Z,27.00
2022-09-01T13:59:42.966Z,26.90
2022-09-01T14:02:10.874Z,26.60
2022-09-01T14:04:37.761Z,26.00
2022-09-01T14:07:04.786Z,26.00
2022-09-01T14:09:31.535Z,26.10
2022-09-01T14:11:58.250Z,26.10
2022-09-01T14:14:25.127Z,26.40
2022-09-01T14:16:54.990Z,26.30
2022-09-01T14:19:22.947Z,26.20
2022-09-01T14:21:49.821Z,26.20
2022-09-01T14:24:19.910Z,26.30
2022-09-01T14:26:48.051Z,26.20
2022-09-01T14:29:14.814Z,26.20
2022-09-01T14:31:43.509Z,26.10
2022-09-01T14:34:12.220Z,26.00
2022-09-01T14:36:39.022Z,26.00
2022-09-01T14:39:05.769Z,26.30
2022-09-01T14:41:32.801Z,26.30
2022-09-01T14:44:03.358Z,26.20
2022-09-01T14:46:31.773Z,26.20
2022-09-01T14:48:58.514Z,26.30
2022-09-01T14:52:10.191Z,26.30
2022-09-01T14:54:14.802Z,26.20
2022-09-01T14:56:41.937Z,26.10
2022-09-01T14:59:08.913Z,26.00
2022-09-01T15:01:35.799Z,26.00
2022-09-01T15:04:02.890Z,26.20
2022-09-01T15:06:29.579Z,26.20
2022-09-01T15:08:56.318Z,26.30
2022-09-01T15:11:22.981Z,26.20
2022-09-01T15:13:52.113Z,26.00
2022-09-01T15:16:22.458Z,26.10
2022-09-01T15:18:49.885Z,26.10
2022-09-01T15:21:32.039Z,26.00
2022-09-01T15:24:04.333Z,26.10
2022-09-01T15:26:31.752Z,26.00
2022-09-01T15:28:58.620Z,25.90
2022-09-01T15:31:32.849Z,25.80
2022-09-01T15:34:02.689Z,25.80
2022-09-01T15:36:31.234Z,25.80
2022-09-01T15:38:58.917Z,26.00
2022-09-01T15:41:28.582Z,26.00
2022-09-01T15:43:56.153Z,25.90
2022-09-01T15:46:23.613Z,25.80
2022-09-01T15:48:50.539Z,25.80
2022-09-01T15:51:22.903Z,25.70
2022-09-01T15:53:55.796Z,25.70
2022-09-01T15:56:22.566Z,25.90
2022-09-01T15:59:00.628Z,25.80
2022-09-01T16:01:30.251Z,25.80
2022-09-01T16:03:56.931Z,25.80
2022-09-01T16:06:24.049Z,25.80
2022-09-01T16:08:51.004Z,25.80
2022-09-01T16:11:17.763Z,25.80
2022-09-01T16:13:44.595Z,25.80
2022-09-01T16:16:20.107Z,25.80
2022-09-01T16:18:56.690Z,25.80
2022-09-01T16:21:41.092Z,25.70
2022-09-01T16:24:12.019Z,25.60
2022-09-01T16:26:38.865Z,25.50
2022-09-01T16:29:42.052Z,25.60
2022-09-01T16:32:11.884Z,25.60
2022-09-01T16:34:49.641Z,25.60
2022-09-01T16:37:43.268Z,25.60
2022-09-01T16:40:19.092Z,25.60
2022-09-01T16:43:15.438Z,25.50
2022-09-01T16:46:00.324Z,25.50
2022-09-01T16:48:49.232Z,25.50
2022-09-01T16:51:15.827Z,25.40
2022-09-01T16:53:42.494Z,25.40
2022-09-01T16:56:22.607Z,25.30
2022-09-01T16:59:03.537Z,25.20
2022-09-01T17:02:09.490Z,25.30
2022-09-01T17:04:49.393Z,25.20
2022-09-01T17:07:29.625Z,25.00
2022-09-01T17:10:04.939Z,25.00
2022-09-01T17:12:51.817Z,25.10
2022-09-01T17:15:41.075Z,25.10
2022-09-01T17:18:33.630Z,25.10
2022-09-01T17:21:11.053Z,24.90
2022-09-01T17:23:46.118Z,24.90
2022-09-01T17:26:21.251Z,24.90
2022-09-01T17:29:14.807Z,24.90
2022-09-01T17:31:55.863Z,24.80
2022-09-01T17:34:32.550Z,24.70
2022-09-01T17:37:01.945Z,24.80
2022-09-01T17:39:54.781Z,24.70
2022-09-01T17:42:50.680Z,24.60
2022-09-01T17:45:29.048Z,24.60
2022-09-01T17:47:59.871Z,24.50
2022-09-01T17:50:41.140Z,24.50
2022-09-01T17:53:33.758Z,24.40
2022-09-01T17:56:06.679Z,24.30
2022-09-01T17:58:47.765Z,24.20
2022-09-01T18:01:42.113Z,24.20
2022-09-01T18:04:29.732Z,24.10
2022-09-01T18:07:19.752Z,24.00
2022-09-01T18:09:52.519Z,24.00
2022-09-01T18:12:33.370Z,23.90
2022-09-01T18:15:04.858Z,23.90
2022-09-01T18:17:35.591Z,23.90
2022-09-01T18:20:11.533Z,23.90
2022-09-01T18:22:44.924Z,23.90
2022-09-01T18:25:21.103Z,23.90
2022-09-01T18:27:48.160Z,23.90
2022-09-01T18:30:26.283Z,23.70
2022-09-01T18:33:38.262Z,23.70
2022-09-01T18:36:23.308Z,23.60
2022-09-01T18:39:01.822Z,23.50
2022-09-01T18:41:43.280Z,23.40
2022-09-01T18:44:26.395Z,23.30
2022-09-01T18:46:56.437Z,23.20
2022-09-01T18:49:42.103Z,23.10
2022-09-01T18:52:38.705Z,23.10
2022-09-01T18:55:24.612Z,23.00
2022-09-01T18:58:02.152Z,23.00
2022-09-01T19:00:49.603Z,22.90
2022-09-01T19:03:37.762Z,22.80
2022-09-01T19:06:11.619Z,22.70
2022-09-01T19:08:56.374Z,22.70
2022-09-01T19:11:32.073Z,22.60
2022-09-01T19:14:12.192Z,22.40
2022-09-01T19:16:44.682Z,22.40
2022-09-01T19:19:33.102Z,22.30
2022-09-01T19:21:59.808Z,22.20
2022-09-01T19:24:45.612Z,22.10
2022-09-01T19:27:16.116Z,22.00
2022-09-01T19:29:52.342Z,22.00
2022-09-01T19:32:21.560Z,21.90
2022-09-01T19:35:02.663Z,21.90
2022-09-01T19:37:29.329Z,21.80
2022-09-01T19:39:56.084Z,21.70
2022-09-01T19:42:36.408Z,21.70
2022-09-01T19:45:07.257Z,21.60
2022-09-01T19:47:42.961Z,21.50
2022-09-01T19:50:12.643Z,21.50
2022-09-01T19:52:48.332Z,21.40
2022-09-01T19:55:19.185Z,21.50
2022-09-01T19:57:54.444Z,21.40
2022-09-01T20:00:50.770Z,21.30
2022-09-01T20:03:27.597Z,21.20
2022-09-01T20:06:05.625Z,21.20
2022-09-01T20:08:44.183Z,21.00
2022-09-01T20:11:47.993Z,21.00
2022-09-01T20:14:32.241Z,20.90
2022-09-01T20:17:04.350Z,20.80
2022-09-01T20:19:37.238Z,20.80
2022-09-01T20:22:20.585Z,20.80
2022-09-01T20:24:47.817Z,20.70
2022-09-01T20:27:25.701Z,20.70
2022-09-01T20:30:09.021Z,20.70
2022-09-01T20:32:59.796Z,20.60
2022-09-01T20:35:39.801Z,20.60
2022-09-01T20:38:43.828Z,20.50
2022-09-01T20:41:30.831Z,20.50
2022-09-01T20:43:58.193Z,20.60
2022-09-01T20:46:26.622Z,20.50
2022-09-01T20:48:53.373Z,20.40
2022-09-01T20:51:41.228Z,20.50
2022-09-01T20:54:32.008Z,20.50
2022-09-01T20:57:21.990Z,20.40
2022-09-01T20:59:53.496Z,20.40
2022-09-01T21:02:29.433Z,20.40
2022-09-01T21:05:32.012Z,20.40
2022-09-01T21:08:17.964Z,20.30
2022-09-01T21:11:24.996Z,20.30
2022-09-01T21:14:14.017Z,20.40
2022-09-01T21:16:56.374Z,20.40
2022-09-01T21:19:53.884Z,20.30
2022-09-01T21:22:22.470Z,20.30
2022-09-01T21:24:49.501Z,20.30
2022-09-01T21:27:24.452Z,20.30
2022-09-01T21:29:59.585Z,20.30
2022-09-01T21:32:29.167Z,20.30
2022-09-01T21:34:56.427Z,20.30
2022-09-01T21:37:24.361Z,20.20
2022-09-01T21:39:55.095Z,20.20
2022-09-01T21:42:26.301Z,20.20
2022-09-01T21:44:55.199Z,20.10
2022-09-01T21:47:22.737Z,20.00
2022-09-01T21:49:49.471Z,20.10
2022-09-01T21:52:16.386Z,20.00
2022-09-01T21:54:43.546Z,19.90
2022-09-01T21:57:10.249Z,19.80
2022-09-01T21:59:36.935Z,19.80
2022-09-01T22:02:06.407Z,19.80
2022-09-01T22:04:36.930Z,19.70
2022-09-01T22:07:05.558Z,19.70
2022-09-01T22:09:32.597Z,19.70
2022-09-01T22:11:59.265Z,19.70
2022-09-01T22:14:27.810Z,19.70
2022-09-01T22:16:54.565Z,19.70
2022-09-01T22:19:21.426Z,19.60
2022-09-01T22:21:48.353Z,19.50
2022-09-01T22:24:19.195Z,19.50
2022-09-01T22:26:47.545Z,19.50
2022-09-01T22:29:14.641Z,19.40
2022-09-01T22:31:41.436Z,19.40
2022-09-01T22:34:08.408Z,19.50
2022-09-01T22:36:40.397Z,19.50
2022-09-01T22:39:09.998Z,19.40
2022-09-01T22:41:38.369Z,19.40
2022-09-01T22:44:05.453Z,19.30
2022-09-01T22:46:34.606Z,19.40
2022-09-01T22:49:02.591Z,19.40
2022-09-01T22:51:29.482Z,19.30
2022-09-01T22:53:56.372Z,19.30
2022-09-01T22:56:28.989Z,19.40
2022-09-01T22:58:58.625Z,19.40
2022-09-01T23:01:27.368Z,19.30
2022-09-01T23:03:56.161Z,19.30
2022-09-01T23:06:26.857Z,19.20
2022-09-01T23:08:59.455Z,19.10
2022-09-01T23:11:26.896Z,19.10
2022-09-01T23:13:54.209Z,19.10
2022-09-01T23:16:25.398Z,19.10
2022-09-01T23:18:53.101Z,19.00
2022-09-01T23:21:23.357Z,18.90
2022-09-01T23:23:57.400Z,19.00
2022-09-01T23:26:26.482Z,18.90
2022-09-01T23:28:53.361Z,18.90
2022-09-01T23:31:24.583Z,18.90
2022-09-01T23:33:51.908Z,18.90
2022-09-01T23:36:21.661Z,18.90
2022-09-01T23:38:49.568Z,18.80
2022-09-01T23:41:24.191Z,18.80
2022-09-01T23:43:51.751Z,18.80
2022-09-01T23:46:25.057Z,18.80
2022-09-01T23:48:52.488Z,18.70
2022-09-01T23:51:20.175Z,18.70
2022-09-01T23:53:47.946Z,18.70
2022-09-01T23:56:18.139Z,18.60
2022-09-01T23:58:45.510Z,18.50
